createdAt,value
2023-04-24T00:02:08.020Z,18.48
2023-04-24T00:04:35.509Z,18.77
2023-04-24T00:07:02.702Z,18.40
2023-04-24T00:09:29.818Z,17.63
2023-04-24T00:11:57.288Z,17.38
2023-04-24T00:14:24.375Z,16.98
2023-04-24T00:16:51.783Z,18.83
2023-04-24T00:19:22.368Z,17.85
2023-04-24T00:21:52.430Z,17.33
2023-04-24T00:24:19.606Z,16.17
2023-04-24T00:26:46.842Z,17.08
2023-04-24T00:29:14.419Z,16.65
2023-04-24T00:31:41.607Z,16.05
2023-04-24T00:34:09.333Z,16.27
2023-04-24T00:36:36.649Z,15.38
2023-04-24T00:39:04.054Z,15.60
2023-04-24T00:41:31.474Z,16.23
2023-04-24T00:43:59.412Z,14.80
2023-04-24T00:46:26.757Z,15.18
2023-04-24T00:48:54.271Z,16.02
2023-04-24T00:51:22.179Z,16.15
2023-04-24T00:53:49.473Z,16.23
2023-04-24T00:56:17.024Z,14.98
2023-04-24T00:58:45.412Z,15.45
2023-04-24T01:01:12.945Z,14.95
2023-04-24T01:03:41.751Z,14.88
2023-04-24T01:06:10.561Z,15.50
2023-04-24T01:08:38.197Z,13.75
2023-04-24T01:11:06.318Z,15.88
2023-04-24T01:13:34.778Z,15.18
2023-04-24T01:16:02.427Z,14.10
2023-04-24T01:18:29.976Z,14.07
2023-04-24T01:21:00.677Z,15.15
2023-04-24T01:23:27.987Z,15.20
2023-04-24T01:25:55.325Z,14.65
2023-04-24T01:28:23.513Z,14.63
2023-04-24T01:30:51.000Z,15.05
2023-04-24T01:33:18.410Z,14.30
2023-04-24T01:35:45.864Z,13.80
2023-04-24T01:38:13.063Z,13.77
2023-04-24T01:40:40.481Z,14.52
2023-04-24T01:43:07.926Z,14.15
2023-04-24T01:45:35.268Z,14.77
2023-04-24T01:48:05.062Z,14.88
2023-04-24T01:50:32.557Z,14.05
2023-04-24T01:52:59.711Z,14.90
2023-04-24T01:55:26.991Z,14.80
2023-04-24T01:57:56.868Z,14.80
2023-04-24T02:00:25.920Z,14.50
2023-04-24T02:02:54.431Z,15.13
2023-04-24T02:05:21.838Z,13.98
2023-04-24T02:07:49.032Z,14.20
2023-04-24T02:10:16.332Z,14.32
2023-04-24T02:12:43.650Z,15.63
2023-04-24T02:15:11.333Z,16.40
2023-04-24T02:17:38.811Z,14.98
2023-04-24T02:20:07.997Z,14.50
2023-04-24T02:22:35.337Z,14.13
2023-04-24T02:25:02.976Z,14.45
2023-04-24T02:27:30.113Z,15.05
2023-04-24T02:29:57.811Z,14.82
2023-04-24T02:32:25.121Z,14.27
2023-04-24T02:34:52.280Z,14.27
2023-04-24T02:37:19.508Z,15.23
2023-04-24T02:39:46.699Z,12.82
2023-04-24T02:42:13.993Z,13.38
2023-04-24T02:44:42.013Z,13.43
2023-04-24T02:47:09.887Z,13.80
2023-04-24T02:49:37.050Z,13.68
2023-04-24T02:52:04.311Z,14.75
2023-04-24T02:54:31.641Z,14.18
2023-04-24T02:56:58.862Z,13.68
2023-04-24T02:59:28.286Z,15.60
2023-04-24T03:01:55.700Z,14.30
2023-04-24T03:04:23.829Z,16.08
2023-04-24T03:06:53.954Z,14.63
2023-04-24T03:09:21.754Z,15.43
2023-04-24T03:11:49.771Z,15.32
2023-04-24T03:14:17.547Z,13.60
2023-04-24T03:16:44.690Z,13.98
2023-04-24T03:19:11.798Z,15.02
2023-04-24T03:21:47.781Z,15.38
2023-04-24T03:24:15.065Z,15.52
2023-04-24T03:26:42.390Z,16.52
2023-04-24T03:29:26.757Z,15.80
2023-04-24T03:31:54.849Z,16.38
2023-04-24T03:34:22.735Z,14.65
2023-04-24T03:36:50.031Z,14.95
2023-04-24T03:39:17.289Z,16.45
2023-04-24T03:41:51.581Z,15.98
2023-04-24T03:44:23.673Z,15.30
2023-04-24T03:46:51.468Z,15.00
2023-04-24T03:49:21.842Z,15.75
2023-04-24T03:51:49.619Z,13.95
2023-04-24T03:54:25.811Z,14.15
2023-04-24T03:56:54.345Z,15.20
2023-04-24T03:59:23.988Z,14.10
2023-04-24T04:02:05.193Z,15.13
2023-04-24T04:04:33.219Z,13.95
2023-04-24T04:07:03.965Z,14.63
2023-04-24T04:09:36.985Z,16.00
2023-04-24T04:12:04.270Z,14.70
2023-04-24T04:14:33.937Z,15.10
2023-04-24T04:17:02.025Z,16.25
2023-04-24T04:19:29.258Z,16.30
2023-04-24T04:21:57.477Z,16.25
2023-04-24T04:24:54.122Z,15.32
2023-04-24T04:27:26.150Z,15.50
2023-04-24T04:30:07.262Z,16.10
2023-04-24T04:32:42.579Z,17.92
2023-04-24T04:35:10.578Z,15.55
2023-04-24T04:37:37.942Z,16.10
2023-04-24T04:40:20.076Z,15.77
2023-04-24T04:42:58.327Z,16.90
2023-04-24T04:45:28.318Z,14.05
2023-04-24T04:48:14.941Z,13.55
2023-04-24T04:50:42.838Z,13.77
2023-04-24T04:53:10.877Z,14.23
2023-04-24T04:55:39.945Z,14.50
2023-04-24T04:58:11.462Z,13.48
2023-04-24T05:00:38.902Z,13.10
2023-04-24T05:03:29.071Z,13.60
2023-04-24T05:06:01.427Z,14.20
2023-04-24T05:08:30.198Z,13.25
2023-04-24T05:10:57.447Z,14.07
2023-04-24T05:13:38.124Z,12.65
2023-04-24T05:16:11.090Z,14.30
2023-04-24T05:18:39.250Z,12.93
2023-04-24T05:21:08.689Z,13.63
2023-04-24T05:23:37.063Z,12.60
2023-04-24T05:26:09.276Z,13.80
2023-04-24T05:28:37.973Z,13.93
2023-04-24T05:31:09.406Z,12.55
2023-04-24T05:33:36.961Z,13.05
2023-04-24T05:36:04.840Z,12.63
2023-04-24T05:38:32.510Z,13.13
2023-04-24T05:41:01.329Z,11.82
2023-04-24T05:43:28.496Z,12.93
2023-04-24T05:45:56.465Z,12.73
2023-04-24T05:48:24.133Z,12.70
2023-04-24T05:50:51.898Z,11.77
2023-04-24T05:53:19.332Z,10.88
2023-04-24T05:55:46.710Z,10.40
2023-04-24T05:58:13.896Z,11.32
2023-04-24T06:00:43.671Z,9.75
2023-04-24T06:03:11.272Z,9.85
2023-04-24T06:05:38.635Z,9.93
2023-04-24T06:08:05.800Z,8.48
2023-04-24T06:10:37.207Z,7.88
2023-04-24T06:13:05.707Z,7.32
2023-04-24T06:15:34.782Z,9.05
2023-04-24T06:18:14.027Z,6.95
2023-04-24T06:20:42.688Z,7.80
2023-04-24T06:23:10.747Z,7.93
2023-04-24T06:25:38.847Z,7.20
2023-04-24T06:28:06.334Z,6.80
2023-04-24T06:30:33.434Z,6.78
2023-04-24T06:33:09.267Z,7.47
2023-04-24T06:35:48.910Z,8.18
2023-04-24T06:38:17.590Z,7.18
2023-04-24T06:40:44.890Z,7.15
2023-04-24T06:43:12.189Z,7.35
2023-04-24T06:45:41.028Z,7.43
2023-04-24T06:48:08.415Z,7.50
2023-04-24T06:50:35.552Z,7.63
2023-04-24T06:53:02.636Z,6.60
2023-04-24T06:55:32.636Z,7.88
2023-04-24T06:58:00.259Z,8.75
2023-04-24T07:00:27.366Z,7.25
2023-04-24T07:02:54.518Z,8.20
2023-04-24T07:05:21.724Z,7.70
2023-04-24T07:07:50.153Z,8.55
2023-04-24T07:10:17.399Z,7.55
2023-04-24T07:12:44.523Z,8.60
2023-04-24T07:15:11.836Z,7.30
2023-04-24T07:17:39.778Z,8.00
2023-04-24T07:20:10.423Z,7.53
2023-04-24T07:22:38.855Z,7.07
2023-04-24T07:25:06.429Z,7.28
2023-04-24T07:27:33.727Z,7.78
2023-04-24T07:30:00.792Z,7.22
2023-04-24T07:32:28.002Z,8.63
2023-04-24T07:34:55.108Z,7.25
2023-04-24T07:37:22.510Z,7.15
2023-04-24T07:39:49.779Z,7.50
2023-04-24T07:42:16.850Z,7.05
2023-04-24T07:44:44.016Z,7.32
2023-04-24T07:47:11.779Z,7.63
2023-04-24T07:49:39.397Z,7.07
2023-04-24T07:52:06.447Z,6.88
2023-04-24T07:54:33.532Z,7.07
2023-04-24T07:57:01.875Z,6.60
2023-04-24T07:59:28.953Z,5.55
2023-04-24T08:01:56.102Z,5.38
2023-04-24T08:04:23.532Z,5.82
2023-04-24T08:06:51.119Z,5.85
2023-04-24T08:09:18.242Z,5.15
2023-04-24T08:11:45.534Z,4.90
2023-04-24T08:14:14.450Z,5.30
2023-04-24T08:16:41.992Z,5.07
2023-04-24T08:19:09.557Z,5.28
2023-04-24T08:21:36.685Z,5.35
2023-04-24T08:24:06.354Z,5.45
2023-04-24T08:26:33.416Z,5.47
2023-04-24T08:29:00.523Z,5.47
2023-04-24T08:31:28.072Z,5.50
2023-04-24T08:33:55.357Z,5.93
2023-04-24T08:36:28.248Z,5.07
2023-04-24T08:39:00.256Z,6.03
2023-04-24T08:41:28.680Z,5.60
2023-04-24T08:43:59.220Z,4.90
2023-04-24T08:46:27.250Z,5.63
2023-04-24T08:48:54.636Z,5.10
2023-04-24T08:51:22.604Z,4.88
2023-04-24T08:53:50.568Z,5.40
2023-04-24T08:56:18.374Z,5.10
2023-04-24T08:58:45.698Z,4.97
2023-04-24T09:01:13.483Z,7.70
2023-04-24T09:03:41.438Z,7.88
2023-04-24T09:06:10.543Z,6.38
2023-04-24T09:08:37.834Z,6.00
2023-04-24T09:11:05.743Z,6.68
2023-04-24T09:13:34.623Z,6.72
2023-04-24T09:16:01.837Z,7.13
2023-04-24T09:18:28.900Z,5.95
2023-04-24T09:21:08.166Z,6.95
2023-04-24T09:23:35.513Z,7.18
2023-04-24T09:26:06.288Z,7.25
2023-04-24T09:28:37.847Z,6.70
2023-04-24T09:31:23.091Z,6.82
2023-04-24T09:34:08.281Z,6.50
2023-04-24T09:36:41.987Z,6.80
2023-04-24T09:39:16.731Z,6.45
2023-04-24T09:41:52.107Z,6.35
2023-04-24T09:44:23.679Z,5.95
2023-04-24T09:46:53.322Z,6.55
2023-04-24T09:49:28.122Z,6.22
2023-04-24T09:52:12.161Z,6.95
2023-04-24T09:54:39.738Z,6.43
2023-04-24T09:57:09.112Z,6.38
2023-04-24T09:59:37.450Z,6.47
2023-04-24T10:02:17.658Z,7.03
2023-04-24T10:04:56.987Z,7.13
2023-04-24T10:07:28.863Z,6.18
2023-04-24T10:09:56.825Z,7.40
2023-04-24T10:12:26.116Z,6.50
2023-04-24T10:14:54.370Z,6.55
2023-04-24T10:17:23.024Z,7.15
2023-04-24T10:19:50.763Z,6.47
2023-04-24T10:22:19.239Z,7.00
2023-04-24T10:24:48.585Z,6.28
2023-04-24T10:27:16.749Z,6.13
2023-04-24T10:29:46.112Z,6.47
2023-04-24T10:32:13.382Z,7.07
2023-04-24T10:34:40.512Z,6.15
2023-04-24T10:37:08.140Z,5.70
2023-04-24T10:39:36.516Z,5.65
2023-04-24T10:42:14.667Z,6.03
2023-04-24T10:44:41.807Z,6.10
2023-04-24T10:47:15.270Z,5.53
2023-04-24T10:49:42.653Z,5.97
2023-04-24T10:52:10.510Z,6.20
2023-04-24T10:54:44.340Z,6.40
2023-04-24T10:57:23.554Z,6.28
2023-04-24T11:00:10.548Z,6.50
2023-04-24T11:02:39.631Z,6.43
2023-04-24T11:05:07.591Z,7.07
2023-04-24T11:08:31.699Z,6.80
2023-04-24T11:11:11.995Z,7.00
2023-04-24T11:13:57.696Z,6.90
2023-04-24T11:16:31.403Z,7.10
2023-04-24T11:19:10.096Z,6.60
2023-04-24T11:21:43.946Z,6.68
2023-04-24T11:24:26.837Z,7.18
2023-04-24T11:27:20.704Z,7.13
2023-04-24T11:29:58.619Z,6.53
2023-04-24T11:32:34.828Z,7.00
2023-04-24T11:35:09.554Z,6.10
2023-04-24T11:37:39.004Z,5.22
2023-04-24T11:40:08.014Z,5.53
2023-04-24T11:42:39.804Z,5.00
2023-04-24T11:45:22.363Z,4.78
2023-04-24T11:47:50.378Z,6.10
2023-04-24T11:50:19.949Z,5.97
2023-04-24T11:52:48.645Z,5.57
2023-04-24T11:55:15.664Z,6.30
2023-04-24T11:57:47.720Z,5.30
2023-04-24T12:00:18.469Z,4.97
2023-04-24T12:02:46.283Z,5.25
2023-04-24T12:05:27.320Z,5.28
2023-04-24T12:07:55.310Z,6.30
2023-04-24T12:10:27.258Z,5.57
2023-04-24T12:12:54.910Z,4.97
2023-04-24T12:15:23.167Z,4.75
2023-04-24T12:17:53.945Z,5.03
2023-04-24T12:20:30.100Z,4.78
2023-04-24T12:23:01.721Z,5.45
2023-04-24T12:25:33.889Z,5.72
2023-04-24T12:28:07.373Z,7.50
2023-04-24T12:30:49.589Z,6.72
2023-04-24T12:33:21.590Z,6.53
2023-04-24T12:35:52.547Z,6.88
2023-04-24T12:38:24.197Z,7.50
2023-04-24T12:41:06.233Z,6.22
2023-04-24T12:43:33.748Z,6.13
2023-04-24T12:46:00.975Z,5.55
2023-04-24T12:48:29.016Z,5.97
2023-04-24T12:50:57.716Z,5.57
2023-04-24T12:53:27.724Z,5.20
2023-04-24T12:55:54.833Z,5.57
2023-04-24T12:58:22.012Z,4.55
2023-04-24T13:00:49.534Z,3.83
2023-04-24T13:03:16.913Z,3.50
2023-04-24T13:05:45.105Z,2.80
2023-04-24T13:08:13.886Z,3.15
2023-04-24T13:10:42.089Z,2.63
2023-04-24T13:13:09.845Z,3.25
2023-04-24T13:15:37.638Z,3.05
2023-04-24T13:18:04.918Z,3.25
2023-04-24T13:20:32.206Z,3.30
2023-04-24T13:22:59.303Z,3.58
2023-04-24T13:25:27.623Z,3.40
2023-04-24T13:27:54.768Z,3.92
2023-04-24T13:30:21.916Z,3.80
2023-04-24T13:32:49.269Z,4.00
2023-04-24T13:35:16.394Z,3.80
2023-04-24T13:37:43.456Z,3.80
2023-04-24T13:40:11.105Z,3.22
2023-04-24T13:42:38.584Z,4.00
2023-04-24T13:45:17.439Z,3.28
2023-04-24T13:47:52.494Z,3.22
2023-04-24T13:50:20.214Z,3.22
2023-04-24T13:52:47.258Z,3.33
2023-04-24T13:55:14.434Z,3.15
2023-04-24T13:57:41.871Z,2.80
2023-04-24T14:00:11.950Z,3.30
2023-04-24T14:02:39.521Z,3.47
2023-04-24T14:05:07.809Z,2.80
2023-04-24T14:07:35.031Z,3.03
2023-04-24T14:10:02.303Z,2.83
2023-04-24T14:12:29.789Z,3.28
2023-04-24T14:14:56.977Z,2.80
2023-04-24T14:17:24.178Z,2.67
2023-04-24T14:19:53.054Z,3.08
2023-04-24T14:22:20.290Z,2.90
2023-04-24T14:24:47.414Z,2.80
2023-04-24T14:27:14.494Z,2.70
2023-04-24T14:29:42.102Z,2.90
2023-04-24T14:32:10.196Z,2.97
2023-04-24T14:34:37.385Z,2.50
2023-04-24T14:37:05.002Z,2.75
2023-04-24T14:39:32.089Z,2.80
2023-04-24T14:41:59.249Z,2.88
2023-04-24T14:44:26.389Z,3.38
2023-04-24T14:46:54.355Z,3.72
2023-04-24T14:49:21.831Z,5.68
2023-04-24T14:51:48.977Z,4.72
2023-04-24T14:54:16.066Z,4.53
2023-04-24T14:56:44.883Z,4.53
2023-04-24T14:59:12.088Z,2.83
2023-04-24T15:01:39.247Z,2.88
2023-04-24T15:04:06.614Z,3.20
2023-04-24T15:06:34.038Z,2.58
2023-04-24T15:09:01.319Z,2.50
2023-04-24T15:11:28.750Z,2.97
2023-04-24T15:13:56.817Z,3.80
2023-04-24T15:16:25.477Z,4.40
2023-04-24T15:18:52.746Z,5.03
2023-04-24T15:21:19.892Z,5.28
2023-04-24T15:23:47.170Z,5.75
2023-04-24T15:26:14.573Z,6.05
2023-04-24T15:28:41.764Z,5.63
2023-04-24T15:31:08.927Z,5.55
2023-04-24T15:33:36.407Z,5.40
2023-04-24T15:36:06.827Z,4.78
2023-04-24T15:38:33.918Z,5.03
2023-04-24T15:41:01.089Z,4.35
2023-04-24T15:43:30.958Z,4.18
2023-04-24T15:45:58.741Z,3.13
2023-04-24T15:48:26.007Z,2.90
2023-04-24T15:50:53.160Z,2.30
2023-04-24T15:53:22.622Z,2.47
2023-04-24T15:55:51.611Z,2.78
2023-04-24T15:58:20.176Z,2.47
2023-04-24T16:00:47.631Z,2.65
2023-04-24T16:03:15.326Z,2.20
2023-04-24T16:05:42.624Z,2.58
2023-04-24T16:08:10.754Z,2.80
2023-04-24T16:10:38.213Z,3.35
2023-04-24T16:13:05.550Z,3.00
2023-04-24T16:15:32.929Z,2.70
2023-04-24T16:18:00.176Z,3.47
2023-04-24T16:20:27.345Z,2.95
2023-04-24T16:22:55.035Z,2.67
2023-04-24T16:25:25.401Z,2.40
2023-04-24T16:27:53.949Z,2.60
2023-04-24T16:30:21.053Z,2.30
2023-04-24T16:32:48.287Z,2.85
2023-04-24T16:35:15.379Z,2.70
2023-04-24T16:37:42.617Z,2.90
2023-04-24T16:40:12.812Z,2.30
2023-04-24T16:42:40.411Z,2.95
2023-04-24T16:45:08.320Z,2.55
2023-04-24T16:47:36.721Z,2.33
2023-04-24T16:50:04.348Z,2.40
2023-04-24T16:52:31.462Z,3.00
2023-04-24T16:54:59.371Z,3.13
2023-04-24T16:57:26.514Z,3.28
2023-04-24T16:59:53.655Z,3.50
2023-04-24T17:02:22.246Z,4.57
2023-04-24T17:04:49.478Z,4.10
2023-04-24T17:07:17.766Z,4.18
2023-04-24T17:09:44.949Z,5.07
2023-04-24T17:12:12.070Z,5.15
2023-04-24T17:14:39.243Z,4.88
2023-04-24T17:17:06.368Z,4.47
2023-04-24T17:19:33.906Z,4.60
2023-04-24T17:22:01.036Z,4.68
2023-04-24T17:24:33.647Z,4.93
2023-04-24T17:27:08.049Z,4.53
2023-04-24T17:29:39.222Z,4.43
2023-04-24T17:32:06.671Z,4.80
2023-04-24T17:34:33.867Z,5.13
2023-04-24T17:37:01.277Z,5.32
2023-04-24T17:39:28.735Z,5.05
2023-04-24T17:41:57.606Z,5.68
2023-04-24T17:44:25.121Z,6.45
2023-04-24T17:46:52.256Z,6.55
2023-04-24T17:49:19.368Z,5.85
2023-04-24T17:51:46.505Z,5.75
2023-04-24T17:54:13.657Z,5.90
2023-04-24T17:56:41.051Z,5.78
2023-04-24T17:59:08.371Z,5.25
2023-04-24T18:01:35.628Z,7.38
2023-04-24T18:04:02.952Z,8.90
2023-04-24T18:06:30.278Z,9.45
2023-04-24T18:08:57.448Z,9.88
2023-04-24T18:11:24.992Z,10.70
2023-04-24T18:13:52.126Z,9.40
2023-04-24T18:16:19.264Z,10.65
2023-04-24T18:18:46.747Z,9.13
2023-04-24T18:21:14.020Z,10.07
2023-04-24T18:23:41.349Z,9.35
2023-04-24T18:26:09.152Z,9.15
2023-04-24T18:28:36.205Z,8.45
2023-04-24T18:31:03.877Z,9.25
2023-04-24T18:33:31.557Z,9.65
2023-04-24T18:35:59.016Z,8.90
2023-04-24T18:38:26.304Z,9.70
2023-04-24T18:40:53.570Z,9.45
2023-04-24T18:43:20.773Z,8.82
2023-04-24T18:45:47.966Z,8.38
2023-04-24T18:48:15.078Z,8.88
2023-04-24T18:50:42.246Z,8.43
2023-04-24T18:53:10.072Z,9.18
2023-04-24T18:55:37.225Z,7.97
2023-04-24T18:58:06.622Z,8.43
2023-04-24T19:00:33.799Z,9.48
2023-04-24T19:03:01.129Z,9.18
2023-04-24T19:05:28.426Z,8.85
2023-04-24T19:07:55.568Z,9.07
2023-04-24T19:10:22.710Z,8.98
2023-04-24T19:12:56.405Z,8.35
2023-04-24T19:15:24.990Z,9.75
2023-04-24T19:17:52.247Z,11.20
2023-04-24T19:20:19.907Z,11.10
2023-04-24T19:22:47.668Z,12.98
2023-04-24T19:25:14.873Z,13.07
2023-04-24T19:27:42.067Z,13.65
2023-04-24T19:30:09.720Z,12.23
2023-04-24T19:32:37.003Z,12.57
2023-04-24T19:35:06.070Z,14.00
2023-04-24T19:37:34.491Z,14.48
2023-04-24T19:40:02.282Z,14.82
2023-04-24T19:42:42.682Z,12.25
2023-04-24T19:45:12.505Z,10.13
2023-04-24T19:47:40.021Z,9.85
2023-04-24T19:50:08.273Z,10.82
2023-04-24T19:52:35.786Z,8.57
2023-04-24T19:55:02.997Z,7.85
2023-04-24T19:57:30.198Z,7.13
2023-04-24T19:59:57.374Z,7.05
2023-04-24T20:02:24.518Z,7.05
2023-04-24T20:04:52.833Z,5.60
2023-04-24T20:10:28.878Z,5.93
2023-04-24T20:12:56.316Z,6.53
2023-04-24T20:15:23.420Z,5.72
2023-04-24T20:17:50.734Z,6.43
2023-04-24T20:20:17.935Z,5.93
2023-04-24T20:22:45.093Z,6.50
2023-04-24T20:25:13.513Z,5.47
2023-04-24T20:27:41.453Z,5.03
2023-04-24T20:30:13.162Z,5.57
2023-04-24T20:32:41.822Z,4.85
2023-04-24T20:35:09.589Z,5.72
2023-04-24T20:37:37.030Z,5.35
2023-04-24T20:40:07.492Z,5.70
2023-04-24T20:42:34.659Z,5.40
2023-04-24T20:45:02.383Z,5.50
2023-04-24T20:47:29.715Z,6.00
2023-04-24T20:49:56.828Z,6.25
2023-04-24T20:52:23.924Z,5.82
2023-04-24T20:54:51.018Z,5.63
2023-04-24T20:57:18.256Z,5.40
2023-04-24T20:59:45.342Z,5.20
2023-04-24T21:02:12.453Z,5.80
2023-04-24T21:04:39.995Z,5.82
2023-04-24T21:07:09.416Z,6.72
2023-04-24T21:09:36.607Z,6.68
2023-04-24T21:12:03.900Z,6.30
2023-04-24T21:14:31.056Z,6.78
2023-04-24T21:16:59.190Z,6.45
2023-04-24T21:19:26.374Z,7.13
2023-04-24T21:21:53.453Z,6.50
2023-04-24T21:24:20.668Z,5.97
2023-04-24T21:26:48.080Z,6.00
2023-04-24T21:29:15.332Z,5.80
2023-04-24T21:31:42.573Z,5.60
2023-04-24T21:34:10.292Z,5.25
2023-04-24T21:36:37.356Z,5.05
2023-04-24T21:39:04.569Z,5.00
2023-04-24T21:41:31.761Z,4.72
2023-04-24T21:43:59.466Z,4.35
2023-04-24T21:46:27.081Z,4.25
2023-04-24T21:48:54.201Z,4.68
2023-04-24T21:51:21.341Z,3.55
2023-04-24T21:53:48.775Z,3.83
2023-04-24T21:56:16.223Z,3.90
2023-04-24T21:58:43.473Z,3.55
2023-04-24T22:01:12.196Z,3.60
2023-04-24T22:03:39.455Z,3.53
2023-04-24T22:06:06.867Z,2.72
2023-04-24T22:08:35.838Z,2.47
2023-04-24T22:11:03.370Z,2.40
2023-04-24T22:13:31.433Z,2.83
2023-04-24T22:15:59.005Z,2.40
2023-04-24T22:18:30.705Z,2.70
2023-04-24T22:21:04.529Z,2.70
2023-04-24T22:23:31.653Z,2.42
2023-04-24T22:25:58.797Z,2.83
2023-04-24T22:28:26.003Z,3.15
2023-04-24T22:30:53.151Z,2.92
2023-04-24T22:33:20.410Z,2.45
2023-04-24T22:35:47.521Z,2.90
2023-04-24T22:38:14.626Z,3.13
2023-04-24T22:40:42.640Z,2.92
2023-04-24T22:43:09.828Z,2.67
2023-04-24T22:45:38.083Z,2.70
2023-04-24T22:48:05.819Z,2.45
2023-04-24T22:50:32.953Z,2.22
2023-04-24T22:53:01.590Z,2.40
2023-04-24T22:55:29.060Z,2.40
2023-04-24T22:57:57.670Z,1.77
2023-04-24T23:00:24.888Z,1.80
2023-04-24T23:02:52.185Z,1.90
2023-04-24T23:05:22.222Z,2.10
2023-04-24T23:07:50.417Z,2.03
2023-04-24T23:10:17.696Z,1.77
2023-04-24T23:12:44.837Z,1.63
2023-04-24T23:15:12.736Z,1.80
2023-04-24T23:17:40.121Z,1.80
2023-04-24T23:20:08.379Z,1.63
2023-04-24T23:22:35.877Z,1.70
2023-04-24T23:25:03.032Z,1.60
2023-04-24T23:27:30.261Z,1.60
2023-04-24T23:29:57.388Z,1.60
2023-04-24T23:32:24.560Z,1.48
2023-04-24T23:34:51.827Z,1.35
2023-04-24T23:37:19.253Z,2.00
2023-04-24T23:39:46.456Z,1.50
2023-04-24T23:42:13.653Z,1.45
2023-04-24T23:44:40.738Z,1.48
2023-04-24T23:47:07.911Z,1.40
2023-04-24T23:49:36.464Z,1.60
2023-04-24T23:52:04.206Z,1.70
2023-04-24T23:54:31.605Z,1.40
2023-04-24T23:57:49.583Z,1.73
